FABM

Bethlehem Airport

Airport
ICAO code
FABM
Summary
ICAO Region
AFI
ICAO Territory
Location

, Free State

Serving
Bethlehem
Elevation
5561 ft
Coordinates
28° 14' 54" S , 28° 20' 10" E
Metar
FABM 231750Z 27011KT 9999 TS FEW035TCU FEW050CB SCT100 22/13 Q1022

Runways

Designator Length Width Surface Rops
11/29 1175 15 ASP No/No
13/31 1311 46 GRS No/No

Airport map

Aerial View

SKYbrary Partners:

Safety knowledge contributed by: